createdAt,value
2019-01-02T00:00:23.643Z,21.75
2019-01-02T00:02:52.234Z,19.50
2019-01-02T00:05:20.798Z,22.73
2019-01-02T00:07:49.386Z,23.18
2019-01-02T00:10:18.050Z,33.18
2019-01-02T00:12:46.640Z,30.88
2019-01-02T00:15:15.304Z,32.28
2019-01-02T00:17:43.897Z,28.95
2019-01-02T00:20:15.303Z,36.83
2019-01-02T00:22:43.896Z,31.17
2019-01-02T00:25:12.461Z,22.35
2019-01-02T00:27:41.046Z,35.68
2019-01-02T00:30:10.143Z,28.00
2019-01-02T00:32:39.022Z,26.07
2019-01-02T00:35:08.250Z,29.98
2019-01-02T00:37:37.240Z,36.28
2019-01-02T00:40:09.201Z,27.80
2019-01-02T00:42:38.087Z,25.17
2019-01-02T00:45:08.120Z,20.97
2019-01-02T00:47:36.984Z,29.35
2019-01-02T00:50:08.759Z,20.15
2019-01-02T00:52:37.638Z,25.80
2019-01-02T00:55:06.939Z,27.60
2019-01-02T00:57:36.595Z,30.43
2019-01-02T01:00:14.208Z,30.10
2019-01-02T01:02:43.100Z,32.80
2019-01-02T01:05:11.669Z,28.77
2019-01-02T01:07:40.555Z,26.95
2019-01-02T01:10:11.923Z,23.70
2019-01-02T01:12:40.817Z,21.30
2019-01-02T01:15:09.455Z,31.02
2019-01-02T01:17:38.339Z,41.48
2019-01-02T01:20:10.016Z,24.77
2019-01-02T01:22:38.798Z,28.15
2019-01-02T01:25:07.368Z,17.02
2019-01-02T01:27:35.950Z,33.42
2019-01-02T01:30:07.631Z,19.87
2019-01-02T01:32:36.217Z,35.98
2019-01-02T01:35:07.216Z,36.38
2019-01-02T01:37:36.001Z,22.65
2019-01-02T01:40:07.642Z,26.37
2019-01-02T01:42:36.226Z,31.57
2019-01-02T01:45:07.731Z,28.23
2019-01-02T01:47:36.320Z,32.10
2019-01-02T01:50:07.922Z,27.95
2019-01-02T01:52:36.511Z,21.57
2019-01-02T01:55:06.806Z,32.50
2019-01-02T01:57:35.688Z,34.27
2019-01-02T02:00:07.318Z,20.57
2019-01-02T02:02:36.307Z,21.52
2019-01-02T02:05:07.011Z,16.65
2019-01-02T02:07:35.590Z,21.97
2019-01-02T02:10:07.596Z,31.62
2019-01-02T02:12:36.183Z,31.42
2019-01-02T02:15:06.491Z,35.43
2019-01-02T02:17:35.175Z,21.68
2019-01-02T02:20:05.184Z,27.35
2019-01-02T02:22:34.064Z,26.37
2019-01-02T02:25:02.623Z,31.23
2019-01-02T02:27:31.207Z,37.35
2019-01-02T02:30:00.550Z,29.65
2019-01-02T02:32:29.130Z,33.00
2019-01-02T02:34:57.699Z,34.92
2019-01-02T02:37:26.290Z,41.80
2019-01-02T02:39:54.850Z,37.38
2019-01-02T02:42:23.434Z,49.98
2019-01-02T02:44:52.197Z,41.95
2019-01-02T02:47:20.987Z,43.05
2019-01-02T02:49:49.752Z,46.33
2019-01-02T02:52:18.336Z,40.65
2019-01-02T02:54:46.901Z,62.75
2019-01-02T02:57:15.492Z,70.83
2019-01-02T02:59:44.064Z,71.05
2019-01-02T03:02:12.696Z,49.70
2019-01-02T03:04:41.584Z,48.15
2019-01-02T03:07:10.447Z,37.90
2019-01-02T03:09:39.330Z,36.40
2019-01-02T03:12:08.199Z,39.92
2019-01-02T03:14:36.779Z,38.78
2019-01-02T03:17:05.345Z,33.65
2019-01-02T03:19:34.331Z,49.80
2019-01-02T03:22:03.096Z,31.57
2019-01-02T03:24:31.880Z,33.53
2019-01-02T03:27:00.647Z,30.17
2019-01-02T03:29:29.236Z,38.58
2019-01-02T03:31:58.095Z,36.93
2019-01-02T03:34:26.983Z,35.40
2019-01-02T03:36:55.550Z,22.70
2019-01-02T03:39:24.126Z,26.93
2019-01-02T03:41:52.859Z,31.80
2019-01-02T03:44:21.443Z,22.22
2019-01-02T03:46:50.008Z,22.42
2019-01-02T03:49:18.598Z,23.55
2019-01-02T03:51:47.159Z,23.80
2019-01-02T03:54:15.739Z,38.90
2019-01-02T03:56:44.311Z,27.05
2019-01-02T03:59:12.899Z,20.10
2019-01-02T04:01:41.459Z,42.23
2019-01-02T04:04:10.039Z,28.85
2019-01-02T04:06:38.603Z,42.90
2019-01-02T04:09:08.531Z,33.58
2019-01-02T04:11:37.089Z,25.20
2019-01-02T04:14:05.684Z,46.80
2019-01-02T04:16:34.239Z,33.18
2019-01-02T04:19:02.838Z,24.10
2019-01-02T04:21:31.403Z,23.67
2019-01-02T04:23:59.991Z,34.85
2019-01-02T04:26:28.560Z,31.02
2019-01-02T04:28:57.139Z,35.75
2019-01-02T04:31:25.711Z,37.03
2019-01-02T04:33:54.303Z,26.82
2019-01-02T04:36:22.866Z,26.23
2019-01-02T04:38:51.464Z,33.53
2019-01-02T04:41:20.025Z,31.20
2019-01-02T04:43:48.612Z,35.08
2019-01-02T04:46:17.178Z,37.17
2019-01-02T04:48:45.762Z,37.95
2019-01-02T04:51:14.335Z,35.55
2019-01-02T04:53:42.922Z,38.30
2019-01-02T04:56:11.485Z,47.05
2019-01-02T04:58:40.075Z,43.48
2019-01-02T05:01:08.637Z,33.63
2019-01-02T05:03:37.219Z,36.93
2019-01-02T05:06:05.780Z,21.42
2019-01-02T05:08:34.362Z,37.88
2019-01-02T05:11:02.931Z,32.50
2019-01-02T05:13:31.514Z,30.52
2019-01-02T05:16:00.074Z,28.85
2019-01-02T05:18:28.664Z,26.00
2019-01-02T05:20:57.227Z,25.95
2019-01-02T05:23:25.811Z,34.43
2019-01-02T05:25:54.378Z,27.55
2019-01-02T05:28:22.939Z,39.03
2019-01-02T05:30:51.524Z,32.85
2019-01-02T05:33:20.090Z,29.87
2019-01-02T05:35:48.666Z,29.20
2019-01-02T05:38:17.231Z,26.35
2019-01-02T05:40:45.815Z,31.55
2019-01-02T05:43:14.374Z,32.25
2019-01-02T05:45:42.960Z,36.65
2019-01-02T05:48:11.520Z,22.55
2019-01-02T05:50:40.107Z,41.63
2019-01-02T05:53:08.672Z,32.33
2019-01-02T05:55:37.261Z,33.08
2019-01-02T05:58:05.822Z,43.70
2019-01-02T06:00:39.692Z,39.50
2019-01-02T06:03:04.611Z,30.72
2019-01-02T06:05:33.191Z,27.60
2019-01-02T06:08:01.755Z,37.75
2019-01-02T06:10:30.338Z,36.38
2019-01-02T06:12:58.908Z,25.77
2019-01-02T06:15:27.495Z,33.10
2019-01-02T06:17:56.051Z,30.05
2019-01-02T06:20:24.639Z,34.95
2019-01-02T06:22:53.229Z,31.97
2019-01-02T06:25:21.784Z,28.07
2019-01-02T06:27:50.342Z,36.03
2019-01-02T06:30:18.929Z,41.77
2019-01-02T06:32:47.958Z,23.38
2019-01-02T06:35:16.543Z,31.97
2019-01-02T06:37:45.106Z,26.90
2019-01-02T06:40:13.759Z,26.62
2019-01-02T06:42:42.322Z,26.25
2019-01-02T06:45:12.444Z,24.57
2019-01-02T06:47:41.015Z,34.88
2019-01-02T06:50:15.120Z,27.60
2019-01-02T06:52:43.679Z,22.98
2019-01-02T06:55:12.262Z,35.38
2019-01-02T06:57:40.826Z,22.90
2019-01-02T07:00:18.599Z,24.82
2019-01-02T07:02:47.167Z,17.85
2019-01-02T07:05:15.746Z,20.57
2019-01-02T07:07:44.311Z,26.50
2019-01-02T07:10:12.908Z,14.78
2019-01-02T07:12:41.467Z,20.35
2019-01-02T07:15:10.424Z,21.45
2019-01-02T07:17:38.987Z,13.25
2019-01-02T07:20:10.180Z,25.85
2019-01-02T07:22:38.748Z,23.45
2019-01-02T07:25:08.876Z,21.95
2019-01-02T07:27:37.438Z,21.42
2019-01-02T07:30:14.255Z,18.45
2019-01-02T07:32:42.826Z,26.68
2019-01-02T07:35:36.757Z,16.40
2019-01-02T07:38:29.494Z,16.85
2019-01-02T07:41:21.726Z,19.37
2019-01-02T07:43:59.322Z,20.08
2019-01-02T07:46:37.518Z,21.87
2019-01-02T07:49:09.207Z,23.45
2019-01-02T07:51:49.791Z,20.20
2019-01-02T07:54:36.383Z,13.80
2019-01-02T07:57:16.756Z,18.77
2019-01-02T08:00:15.435Z,9.75
2019-01-02T08:02:50.011Z,17.60
2019-01-02T08:05:27.415Z,10.03
2019-01-02T08:08:33.351Z,28.00
2019-01-02T08:11:13.924Z,23.67
2019-01-02T08:14:13.752Z,17.45
2019-01-02T08:16:56.999Z,16.57
2019-01-02T08:19:31.162Z,23.25
2019-01-02T08:22:17.470Z,21.90
2019-01-02T08:25:07.214Z,16.65
2019-01-02T08:27:41.784Z,14.47
2019-01-02T08:30:43.175Z,20.65
2019-01-02T08:33:29.739Z,21.85
2019-01-02T08:36:16.427Z,36.73
2019-01-02T08:38:56.296Z,20.17
2019-01-02T08:41:53.299Z,14.20
2019-01-02T08:44:41.059Z,19.55
2019-01-02T08:47:45.820Z,19.00
2019-01-02T08:50:28.952Z,21.85
2019-01-02T08:53:03.110Z,21.50
2019-01-02T08:55:46.278Z,19.60
2019-01-02T08:58:41.540Z,19.82
2019-01-02T09:01:13.195Z,14.53
2019-01-02T09:03:47.319Z,24.60
2019-01-02T09:06:35.302Z,22.85
2019-01-02T09:09:26.245Z,20.77
2019-01-02T09:12:06.759Z,13.93
2019-01-02T09:14:59.074Z,17.10
2019-01-02T09:17:45.363Z,7.85
2019-01-02T09:20:34.784Z,10.50
2019-01-02T09:23:31.773Z,14.38
2019-01-02T09:26:06.113Z,14.25
2019-01-02T09:28:43.584Z,12.10
2019-01-02T09:31:36.368Z,13.40
2019-01-02T09:34:08.013Z,34.60
2019-01-02T09:36:54.303Z,14.98
2019-01-02T09:39:37.583Z,16.50
2019-01-02T09:42:20.800Z,10.55
2019-01-02T09:44:52.457Z,7.47
2019-01-02T09:47:29.887Z,10.48
2019-01-02T09:50:13.610Z,20.17
2019-01-02T09:52:57.068Z,6.08
2019-01-02T09:55:37.678Z,8.33
2019-01-02T09:58:18.246Z,14.95
2019-01-02T10:00:52.571Z,11.53
2019-01-02T10:03:38.886Z,5.53
2019-01-02T10:06:27.051Z,12.95
2019-01-02T10:09:13.378Z,12.30
2019-01-02T10:12:08.329Z,15.25
2019-01-02T10:14:54.546Z,6.47
2019-01-02T10:17:26.202Z,6.55
2019-01-02T10:20:17.150Z,5.83
2019-01-02T10:23:00.345Z,13.50
2019-01-02T10:25:51.171Z,13.58
2019-01-02T10:28:34.799Z,7.22
2019-01-02T10:31:14.934Z,13.28
2019-01-02T10:34:08.667Z,7.55
2019-01-02T10:36:45.967Z,14.33
2019-01-02T10:39:23.590Z,12.82
2019-01-02T10:42:13.127Z,12.98
2019-01-02T10:45:02.187Z,10.00
2019-01-02T10:47:42.371Z,15.63
2019-01-02T10:50:30.083Z,15.83
2019-01-02T10:53:07.431Z,17.23
2019-01-02T10:55:47.919Z,16.27
2019-01-02T10:58:19.584Z,15.28
2019-01-02T11:00:56.780Z,13.93
2019-01-02T11:03:37.432Z,15.93
2019-01-02T11:06:29.557Z,11.48
2019-01-02T11:09:12.951Z,17.30
2019-01-02T11:12:00.950Z,14.55
2019-01-02T11:14:35.482Z,17.73
2019-01-02T11:17:12.724Z,12.20
2019-01-02T11:20:03.627Z,16.50
2019-01-02T11:22:59.464Z,13.55
2019-01-02T11:25:51.863Z,17.57
2019-01-02T11:28:35.019Z,15.68
2019-01-02T11:31:18.379Z,19.73
2019-01-02T11:34:12.174Z,19.82
2019-01-02T11:37:04.864Z,20.12
2019-01-02T11:39:36.451Z,15.20
2019-01-02T11:42:26.058Z,24.30
2019-01-02T11:45:04.669Z,13.60
2019-01-02T11:47:33.250Z,10.98
2019-01-02T11:50:01.888Z,12.43
2019-01-02T11:52:30.475Z,9.03
2019-01-02T11:54:59.035Z,13.20
2019-01-02T11:57:27.628Z,12.13
2019-01-02T11:59:56.196Z,13.28
2019-01-02T12:02:24.777Z,7.00
2019-01-02T12:04:53.339Z,10.00
2019-01-02T12:07:21.918Z,11.05
2019-01-02T12:09:50.554Z,10.10
2019-01-02T12:12:19.145Z,8.73
2019-01-02T12:14:47.699Z,11.83
2019-01-02T12:17:16.289Z,10.85
2019-01-02T12:19:44.838Z,6.42
2019-01-02T12:22:15.239Z,11.57
2019-01-02T12:24:43.790Z,22.32
2019-01-02T12:27:12.366Z,7.80
2019-01-02T12:29:40.928Z,9.00
2019-01-02T12:32:09.510Z,13.88
2019-01-02T12:34:38.075Z,11.63
2019-01-02T12:37:06.671Z,58.00
2019-01-02T12:39:35.227Z,20.45
2019-01-02T12:42:03.810Z,14.95
2019-01-02T12:44:32.376Z,12.18
2019-01-02T12:47:00.958Z,26.68
2019-01-02T12:49:29.524Z,9.88
2019-01-02T12:51:58.107Z,18.37
2019-01-02T12:54:26.671Z,12.00
2019-01-02T12:56:55.256Z,13.28
2019-01-02T12:59:25.255Z,10.98
2019-01-02T13:02:05.616Z,9.18
2019-01-02T13:04:45.754Z,11.22
2019-01-02T13:07:33.712Z,10.18
2019-01-02T13:10:05.340Z,6.55
2019-01-02T13:12:42.623Z,16.75
2019-01-02T13:15:23.045Z,15.28
2019-01-02T13:18:00.524Z,11.03
2019-01-02T13:20:32.163Z,12.03
2019-01-02T13:23:09.552Z,8.45
2019-01-02T13:25:43.947Z,9.98
2019-01-02T13:28:30.262Z,13.08
2019-01-02T13:31:22.902Z,10.70
2019-01-02T13:34:09.188Z,8.03
2019-01-02T13:36:49.728Z,7.75
2019-01-02T13:39:21.390Z,5.37
2019-01-02T13:41:58.687Z,12.63
2019-01-02T13:44:30.344Z,9.03
2019-01-02T13:47:01.986Z,9.08
2019-01-02T13:49:48.467Z,10.72
2019-01-02T13:52:17.010Z,11.22
2019-01-02T13:54:45.578Z,10.60
2019-01-02T13:57:14.148Z,13.98
2019-01-02T13:59:42.723Z,5.75
2019-01-02T14:02:11.295Z,11.15
2019-01-02T14:04:42.155Z,11.08
2019-01-02T14:07:10.715Z,9.23
2019-01-02T14:09:39.293Z,6.55
2019-01-02T14:12:07.845Z,6.37
2019-01-02T14:14:36.431Z,4.12
2019-01-02T14:17:04.998Z,10.08
2019-01-02T14:19:33.577Z,7.25
2019-01-02T14:22:02.132Z,8.63
2019-01-02T14:24:30.714Z,9.28
2019-01-02T14:26:59.275Z,5.50
2019-01-02T14:29:27.858Z,8.08
2019-01-02T14:31:56.418Z,4.60
2019-01-02T14:34:24.999Z,10.00
2019-01-02T14:36:53.559Z,8.20
2019-01-02T14:39:22.143Z,5.50
2019-01-02T14:41:50.734Z,4.12
2019-01-02T14:44:19.316Z,4.10
2019-01-02T14:46:50.607Z,7.90
2019-01-02T14:49:18.105Z,8.83
2019-01-02T14:51:46.661Z,7.33
2019-01-02T14:54:15.238Z,6.00
2019-01-02T14:56:43.799Z,21.50
2019-01-02T14:59:12.391Z,13.32
2019-01-02T15:01:40.967Z,8.10
2019-01-02T15:04:09.547Z,8.90
2019-01-02T15:06:38.123Z,4.62
2019-01-02T15:09:07.631Z,4.20
2019-01-02T15:11:36.194Z,4.80
2019-01-02T15:14:04.840Z,3.70
2019-01-02T15:16:33.398Z,4.50
2019-01-02T15:19:01.989Z,8.40
2019-01-02T15:21:30.544Z,8.35
2019-01-02T15:23:59.130Z,7.37
2019-01-02T15:26:27.695Z,11.53
2019-01-02T15:28:56.291Z,13.40
2019-01-02T15:31:25.037Z,5.22
2019-01-02T15:33:53.633Z,5.78
2019-01-02T15:36:22.191Z,3.70
2019-01-02T15:38:50.782Z,4.42
2019-01-02T15:41:19.352Z,5.97
2019-01-02T15:43:47.938Z,6.90
2019-01-02T15:46:16.499Z,8.73
2019-01-02T15:48:45.083Z,14.60
2019-01-02T15:51:13.650Z,9.25
2019-01-02T15:53:42.240Z,11.78
2019-01-02T15:56:10.800Z,5.67
2019-01-02T15:58:39.379Z,8.63
2019-01-02T16:01:07.939Z,4.80
2019-01-02T16:03:36.524Z,4.60
2019-01-02T16:06:05.089Z,4.67
2019-01-02T16:08:33.674Z,4.72
2019-01-02T16:11:02.231Z,7.60
2019-01-02T16:13:30.806Z,7.83
2019-01-02T16:15:59.443Z,6.15
2019-01-02T16:18:28.023Z,9.48
2019-01-02T16:20:56.577Z,9.60
2019-01-02T16:23:25.144Z,4.25
2019-01-02T16:25:53.727Z,6.37
2019-01-02T16:28:22.299Z,5.87
2019-01-02T16:30:50.878Z,4.85
2019-01-02T16:33:19.448Z,5.50
2019-01-02T16:35:48.035Z,10.05
2019-01-02T16:38:16.603Z,5.50
2019-01-02T16:40:45.191Z,3.33
2019-01-02T16:43:13.755Z,6.33
2019-01-02T16:45:42.339Z,7.30
2019-01-02T16:48:10.908Z,7.80
2019-01-02T16:50:39.497Z,6.97
2019-01-02T16:53:08.058Z,4.95
2019-01-02T16:55:36.643Z,4.58
2019-01-02T16:58:05.199Z,6.35
2019-01-02T17:00:33.787Z,9.35
2019-01-02T17:03:02.360Z,13.25
2019-01-02T17:05:31.009Z,17.35
2019-01-02T17:07:59.582Z,7.62
2019-01-02T17:10:28.168Z,6.87
2019-01-02T17:12:56.731Z,14.40
2019-01-02T17:15:25.328Z,8.68
2019-01-02T17:17:53.896Z,5.20
2019-01-02T17:20:22.486Z,15.83
2019-01-02T17:22:51.051Z,7.30
2019-01-02T17:25:19.643Z,14.40
2019-01-02T17:27:48.211Z,11.10
2019-01-02T17:30:16.813Z,11.55
2019-01-02T17:32:45.375Z,26.48
2019-01-02T17:35:13.968Z,9.70
2019-01-02T17:37:42.545Z,3.00
2019-01-02T17:40:11.211Z,10.95
2019-01-02T17:42:39.762Z,11.30
2019-01-02T17:45:09.100Z,11.83
2019-01-02T17:47:37.719Z,9.80
2019-01-02T17:50:08.358Z,8.43
2019-01-02T17:52:36.919Z,8.03
2019-01-02T17:55:05.719Z,5.65
2019-01-02T17:57:34.279Z,9.18
2019-01-02T18:00:03.198Z,7.10
2019-01-02T18:02:31.779Z,7.70
2019-01-02T18:05:00.370Z,9.88
2019-01-02T18:07:28.939Z,12.10
2019-01-02T18:09:57.527Z,9.38
2019-01-02T18:12:26.100Z,4.83
2019-01-02T18:14:54.685Z,15.45
2019-01-02T18:17:23.252Z,12.68
2019-01-02T18:19:51.835Z,8.75
2019-01-02T18:22:20.399Z,10.13
2019-01-02T18:24:48.990Z,8.23
2019-01-02T18:27:17.557Z,13.93
2019-01-02T18:29:46.147Z,14.63
2019-01-02T18:32:14.722Z,10.35
2019-01-02T18:34:43.314Z,12.58
2019-01-02T18:37:11.882Z,8.50
2019-01-02T18:39:40.471Z,16.32
2019-01-02T18:42:09.039Z,13.28
2019-01-02T18:44:37.623Z,16.57
2019-01-02T18:47:06.191Z,11.03
2019-01-02T18:49:34.775Z,9.80
2019-01-02T18:52:03.348Z,12.85
2019-01-02T18:54:31.911Z,8.38
2019-01-02T18:57:00.511Z,12.63
2019-01-02T18:59:29.074Z,5.30
2019-01-02T19:01:57.664Z,9.28
2019-01-02T19:04:26.233Z,9.48
2019-01-02T19:06:54.818Z,9.38
2019-01-02T19:09:23.399Z,9.50
2019-01-02T19:11:51.970Z,12.07
2019-01-02T19:14:20.534Z,8.78
2019-01-02T19:16:49.124Z,4.20
2019-01-02T19:19:17.699Z,7.28
2019-01-02T19:21:46.284Z,3.17
2019-01-02T19:24:14.846Z,10.00
2019-01-02T19:26:43.443Z,6.97
2019-01-02T19:29:12.011Z,6.90
2019-01-02T19:31:40.603Z,7.50
2019-01-02T19:34:09.167Z,9.23
2019-01-02T19:36:37.758Z,3.75
2019-01-02T19:39:07.063Z,5.60
2019-01-02T19:41:35.651Z,5.28
2019-01-02T19:44:04.287Z,9.40
2019-01-02T19:46:32.886Z,5.78
2019-01-02T19:49:01.452Z,5.60
2019-01-02T19:51:30.035Z,7.45
2019-01-02T19:53:58.834Z,8.58
2019-01-02T19:56:27.419Z,3.42
2019-01-02T19:58:55.983Z,2.95
2019-01-02T20:01:24.576Z,6.85
2019-01-02T20:03:53.140Z,5.75
2019-01-02T20:06:21.796Z,3.08
2019-01-02T20:08:50.367Z,7.28
2019-01-02T20:11:18.964Z,5.37
2019-01-02T20:13:47.531Z,4.10
2019-01-02T20:16:16.122Z,4.72
2019-01-02T20:18:44.687Z,9.08
2019-01-02T20:21:13.270Z,3.83
2019-01-02T20:23:41.834Z,6.92
2019-01-02T20:26:10.436Z,2.85
2019-01-02T20:28:38.999Z,2.30
2019-01-02T20:31:07.584Z,2.05
2019-01-02T20:33:36.147Z,7.35
2019-01-02T20:36:04.730Z,5.85
2019-01-02T20:38:33.306Z,9.28
2019-01-02T20:41:01.915Z,3.33
2019-01-02T20:43:30.556Z,6.80
2019-01-02T20:45:59.220Z,9.78
2019-01-02T20:48:27.774Z,3.00
2019-01-02T20:50:56.358Z,4.62
2019-01-02T20:53:24.923Z,5.87
2019-01-02T20:55:53.515Z,5.25
2019-01-02T20:58:22.083Z,8.25
2019-01-02T21:00:50.682Z,8.30
2019-01-02T21:03:19.243Z,4.30
2019-01-02T21:05:47.827Z,2.25
2019-01-02T21:08:16.395Z,8.55
2019-01-02T21:10:44.975Z,6.45
2019-01-02T21:13:13.546Z,6.55
2019-01-02T21:15:42.127Z,5.67
2019-01-02T21:18:10.696Z,6.55
2019-01-02T21:20:39.263Z,4.80
2019-01-02T21:23:07.847Z,9.20
2019-01-02T21:25:36.414Z,8.40
2019-01-02T21:28:04.999Z,7.40
2019-01-02T21:30:33.559Z,4.45
2019-01-02T21:33:02.152Z,6.33
2019-01-02T21:35:30.711Z,7.65
2019-01-02T21:37:59.308Z,17.57
2019-01-02T21:40:27.871Z,12.58
2019-01-02T21:42:56.468Z,9.25
2019-01-02T21:45:25.039Z,4.05
2019-01-02T21:47:53.619Z,4.35
2019-01-02T21:50:22.182Z,5.58
2019-01-02T21:52:50.792Z,10.78
2019-01-02T21:55:19.351Z,8.53
2019-01-02T21:57:47.940Z,3.17
2019-01-02T22:00:16.680Z,2.83
2019-01-02T22:02:45.271Z,4.12
2019-01-02T22:05:13.835Z,11.68
2019-01-02T22:07:42.443Z,5.03
2019-01-02T22:10:11.003Z,6.00
2019-01-02T22:12:39.591Z,5.10
2019-01-02T22:15:09.788Z,4.22
2019-01-02T22:17:38.379Z,16.67
2019-01-02T22:20:07.183Z,6.60
2019-01-02T22:22:35.815Z,5.85
2019-01-02T22:25:04.710Z,10.03
2019-01-02T22:27:33.307Z,5.70
2019-01-02T22:30:01.871Z,9.55
2019-01-02T22:32:30.460Z,6.03
2019-01-02T22:34:59.023Z,5.00
2019-01-02T22:37:27.616Z,12.50
2019-01-02T22:39:56.184Z,6.62
2019-01-02T22:42:24.767Z,7.85
2019-01-02T22:44:53.346Z,13.30
2019-01-02T22:47:21.943Z,10.65
2019-01-02T22:49:50.521Z,7.50
2019-01-02T22:52:19.103Z,11.75
2019-01-02T22:54:47.682Z,9.50
2019-01-02T22:57:16.262Z,7.08
2019-01-02T22:59:44.822Z,8.28
2019-01-02T23:02:14.681Z,3.60
2019-01-02T23:04:53.631Z,9.43
2019-01-02T23:07:35.947Z,12.05
2019-01-02T23:10:09.407Z,4.03
2019-01-02T23:12:51.498Z,3.77
2019-01-02T23:15:39.563Z,8.08
2019-01-02T23:18:24.550Z,8.45
2019-01-02T23:21:03.320Z,6.00
2019-01-02T23:23:33.555Z,8.45
2019-01-02T23:26:03.799Z,12.03
2019-01-02T23:28:49.102Z,7.78
2019-01-02T23:31:34.307Z,9.03
2019-01-02T23:34:13.371Z,12.20
2019-01-02T23:37:01.551Z,4.20
2019-01-02T23:39:47.676Z,10.08
2019-01-02T23:42:35.878Z,9.23
2019-01-02T23:45:12.131Z,12.55
2019-01-02T23:47:45.269Z,14.07
2019-01-02T23:50:30.230Z,10.50
2019-01-02T23:53:00.468Z,13.22
2019-01-02T23:55:42.667Z,9.20
2019-01-02T23:58:28.842Z,5.92
